Amunt
Inicio > meteoXarxa
Fes-te'n soci

METEOXARXA

Benicarló
Ubicació centre
Comarca el Baix Maestrat
Altitud (msnm) 15
Posició geogràfica 40° 25' 7.68" N, 00° 25' 34.32" E
Model Davis Vantage Pro2
Presa de dades
Font de les dades Mikel
Estadístiques. Resum
Data Temperatura (ºC) Humitat (%) Pressió (hPa) Vent (km/h) Precipit. (mm)
Mínima Mitjana Màxima Mínima Mitjana Màxima Mínima Mitjana Màxima Predom. Mitjana Ràfega màxima Total Dies de pluja
Mínima Mitjana Màxima Mínima Mitjana Màxima
Últimes dades diàries
20-02-2017 7,3     12,4     17,6 39,0 62,5 86,0 1.024,0 1.025,5 1.027,0 23,0 0,0  
19-02-2017 9,0     12,4     15,8 65,0 78,5 92,0 1.022,0 1.024,5 1.027,0 21,0 0,0  
18-02-2017 6,9     11,2     15,4 58,0 74,0 90,0 1.020,0 1.022,5 1.025,0 21,0 0,0  
17-02-2017 7,0     11,1     15,2 76,0 83,5 91,0 1.025,0 1.028,0 1.031,0 23,0 0,0  
16-02-2017 10,3     13,3     16,3 79,0 86,0 93,0 1.030,0 1.031,5 1.033,0 14,0 0,0  
15-02-2017 9,8     12,8     15,8 77,0 84,0 91,0 1.029,0 1.031,0 1.033,0 14,0 0,0  
14-02-2017 8,2     11,4     14,6 73,0 83,0 93,0 1.015,0 1.022,0 1.029,0 13,0 0,0  
13-02-2017 11,8     13,8     15,9 82,0 88,0 94,0 1.007,0 1.011,0 1.015,0 37,0 5,8  
12-02-2017 12,5     13,8     15,0 82,0 88,0 94,0 1.008,0 1.009,5 1.011,0 31,0 0,0  
11-02-2017 7,8     10,6     13,4 77,0 84,5 92,0 1.011,0 1.014,0 1.017,0 35,0 0,0  
10-02-2017 5,8     9,9     14,1 55,0 68,0 81,0 1.015,0 1.016,0 1.017,0 18,0 0,0  
09-02-2017 7,6     11,1     14,5 26,0 46,0 66,0 1.017,0 1.018,5 1.020,0 45,0 0,0  
08-02-2017 9,8     12,1     14,4 35,0 47,0 59,0 1.016,0 1.018,5 1.021,0 66,0 0,0  
07-02-2017 13,3     17,6     21,9 40,0 55,5 71,0 1.016,0 1.017,5 1.019,0 48,0 0,0  
06-02-2017 10,7     14,8     18,9 38,0 44,0 50,0 1.016,0 1.018,0 1.020,0 74,0 0,0  
05-02-2017 12,3     14,7     17,1 26,0 52,5 79,0 1.006,0 1.012,5 1.019,0 71,0 0,0  
04-02-2017 10,8     14,8     18,8 56,0 70,0 84,0 1.010,0 1.012,0 1.014,0 31,0 0,0  
03-02-2017 8,1     13,9     19,8 50,0 69,5 89,0 1.012,0 1.014,5 1.017,0 39,0 0,0  
02-02-2017 6,7     10,2     13,7 79,0 88,0 97,0 1.012,0 1.014,5 1.017,0 24,0 1,8  
01-02-2017 8,9     12,0     15,1 77,0 87,0 97,0 1.016,0 1.017,5 1.019,0 16,0 0,0  
31-01-2017 7,1     9,8     12,6 85,0 90,5 96,0 1.017,0 1.018,0 1.019,0 10,0 0,0  
30-01-2017 8,1     11,2     14,3 60,0 74,5 89,0 1.019,0 1.021,0 1.023,0 11,0 0,0  
29-01-2017 5,9     10,2     14,5 50,0 62,0 74,0 1.023,0 1.024,5 1.026,0 24,0 0,0  
28-01-2017 8,8     12,7     16,5 38,0 64,5 91,0 1.009,0 1.016,5 1.024,0 37,0 6,8  
27-01-2017 7,8     11,3     14,8 73,0 82,5 92,0 1.008,0 1.012,5 1.017,0 27,0 24,6  
26-01-2017 4,4     7,8     11,1 71,0 79,5 88,0 1.016,0 1.018,0 1.020,0 19,0 0,0  
25-01-2017 4,9     8,6     12,2 35,0 57,0 79,0 1.018,0 1.019,5 1.021,0 21,0 0,0  
24-01-2017 7,7     11,2     14,6 37,0 54,0 71,0 1.017,0 1.019,0 1.021,0 40,0 0,0  
23-01-2017 7,4     9,9     12,4 56,0 70,0 84,0 1.016,0 1.017,5 1.019,0 31,0 1,0  
22-01-2017 8,4     10,1     11,8 52,0 67,5 83,0 1.014,0 1.015,5 1.017,0 43,0 1,4  
21-01-2017 7,4     9,3     11,3 59,0 76,0 93,0 1.015,0 1.017,0 1.019,0 47,0 12,4  
20-01-2017 8,6     9,8     10,9 84,0 88,5 93,0 1.017,0 1.018,0 1.019,0 58,0 41,2  
Dades del mes en curs (actualitzades fins l'últim dia disponible)
02/2017 5,8 9,2 13,3 12,7 13,4 16,2 21,9 26,0 72,0 97,0 1.006,0 1.019,0 1.033,0   74,0 7,6  
Últimes dades mensuals
01/2017 2,1 7,1 11,0 10,3 9,2 13,5 17,4 39,0 64,4 90,5 1.012,5 1.018,5 1.024,5 68,0 102,0 7
12/2016 5,6 8,9 15,0 12,2 11,6 15,5 18,2 70,5 81,6 90,5 1.015,0 1.025,1 1.034,0 55,0 42,4 6
11/2016 6,8 11,3 15,4 14,9 13,9 18,4 25,9 44,0 69,7 88,5 1.002,5 1.015,4 1.030,5 53,0 74,8 8
10/2016 12,3 16,4 20,0 19,8 17,9 23,2 27,1 60,5 77,1 88,0 1.000,5 1.016,4 1.029,5 34,0 25,8 11
09/2016 16,3 19,9 24,6 23,8 22,6 27,7 31,6 51,5 71,4 80,0 1.012,0 1.018,2 1.027,0 47,0 22,4 3
08/2016 18,2 21,7 24,5 25,4 25,4 29,1 30,4 57,0 70,5 81,5 1.010,0 1.017,9 1.023,5 40,0 8,4 3
07/2016 17,8 21,5 24,1 25,1 24,3 28,6 30,3 45,0 68,0 81,0 1.013,0 1.016,8 1.021,5 40,0 1,4 2
06/2016 15,7 18,8 22,3 22,5 23,3 26,1 30,6 42,5 68,6 83,0 1.002,0 1.015,3 1.023,0 51,0 8,6 5
05/2016 9,9 14,5 18,6 18,0 16,7 21,6 27,4 35,0 69,2 93,0 1.004,0 1.014,1 1.021,5 61,0 40,6 9
04/2016 8,4 11,7 14,5 15,3 14,6 19,0 22,4 40,0 68,7 86,0 1.006,0 1.013,1 1.019,5 55,0 54,2 7
03/2016 6,1 9,5 13,2 13,2 11,8 17,0 24,1 39,5 62,2 89,0 1.003,0 1.014,1 1.021,5 63,0 72,8 5
02/2016 3,9 8,7 15,5 12,9 11,8 17,0 25,6 38,5 61,7 84,0 992,0 1.016,5 1.035,0 76,0 13,2 7
01/2016 5,6 9,1 13,4 12,6 12,2 16,1 22,9 42,5 68,8 89,0 1.006,5 1.021,9 1.034,5 63,0 0,2 1
Dades de l'any en curs (actualitzades fins l'últim dia disponible)
2017 2,1 8,1 13,3 11,4 9,2 14,8 21,9 21,0 68,0 97,0 1.006,0 1.018,7 1.033,0   74,0 109,6  
Últimes dades anuals
2010 1,7 13,3 24,7 16,7 5,1 20,0 34,6 37,0 69,4 94,0 992,3 1.013,6 1.029,1 5,2 93,0 466,2 91
2011 -0,4 14,3 24,4 17,7 7,1 21,0 31,3 36,5 70,4 94,5 97,0 710,6 75
2012 0,3 13,8 18,9 17,5 16,9 21,1 31,7 48,2 65,9 72,4 1.014,2 1.017,0 1.019,7 105,0 525,0 64
2013 1,9 13,8 18,3 17,6 17,6 21,4 32,1 56,8 65,8 70,9 1.005,9 1.015,6 1.023,9 84,0 587,6 77
2014 2,7 14,8 24,6 18,3 8,5 21,9 33,5 35,5 69,9 91,5 993,5 1.014,9 1.032,5 105,0 519,6 75
2015 2,6 14,2 20,4 18,0 18,3 21,8 32,8 58,9 69,7 80,6 1.014,6 1.018,4 1.029,8 77,0 680,4 68